sensor_id;sensor_type;location;lat;lon;timestamp;P1;P2;P0
57623;PMS7003;43448;52.264;20.644;2023-01-09T00:00:01;23;21;
57623;PMS7003;43448;52.264;20.644;2023-01-09T00:10:00;26;22;
57623;PMS7003;43448;52.264;20.644;2023-01-09T00:20:00;19;17;
57623;PMS7003;43448;52.264;20.644;2023-01-09T00:30:00;22;20;
57623;PMS7003;43448;52.264;20.644;2023-01-09T00:40:00;16;14;
57623;PMS7003;43448;52.264;20.644;2023-01-09T00:50:02;19;18;
57623;PMS7003;43448;52.264;20.644;2023-01-09T01:00:00;16;16;
57623;PMS7003;43448;52.264;20.644;2023-01-09T01:10:00;25;20;
57623;PMS7003;43448;52.264;20.644;2023-01-09T01:20:00;20;17;
57623;PMS7003;43448;52.264;20.644;2023-01-09T01:30:00;24;20;
57623;PMS7003;43448;52.264;20.644;2023-01-09T01:40:00;21;20;
57623;PMS7003;43448;52.264;20.644;2023-01-09T01:50:01;18;16;
57623;PMS7003;43448;52.264;20.644;2023-01-09T02:00:00;21;19;
57623;PMS7003;43448;52.264;20.644;2023-01-09T02:10:00;18;17;
57623;PMS7003;43448;52.264;20.644;2023-01-09T02:20:23;18;16;
57623;PMS7003;43448;52.264;20.644;2023-01-09T02:30:33;21;20;
57623;PMS7003;43448;52.264;20.644;2023-01-09T02:40:02;19;17;
57623;PMS7003;43448;52.264;20.644;2023-01-09T02:50:01;16;16;
57623;PMS7003;43448;52.264;20.644;2023-01-09T03:00:03;20;19;
57623;PMS7003;43448;52.264;20.644;2023-01-09T03:10:02;21;19;
57623;PMS7003;43448;52.264;20.644;2023-01-09T03:20:02;23;18;
57623;PMS7003;43448;52.264;20.644;2023-01-09T03:30:00;23;17;
57623;PMS7003;43448;52.264;20.644;2023-01-09T03:40:00;21;18;
57623;PMS7003;43448;52.264;20.644;2023-01-09T03:50:00;22;19;
57623;PMS7003;43448;52.264;20.644;2023-01-09T04:00:01;21;19;
57623;PMS7003;43448;52.264;20.644;2023-01-09T04:10:00;19;16;
57623;PMS7003;43448;52.264;20.644;2023-01-09T04:20:00;23;20;
57623;PMS7003;43448;52.264;20.644;2023-01-09T04:30:00;28;21;
57623;PMS7003;43448;52.264;20.644;2023-01-09T04:40:00;25;24;
57623;PMS7003;43448;52.264;20.644;2023-01-09T04:50:00;24;22;
57623;PMS7003;43448;52.264;20.644;2023-01-09T05:00:01;26;23;
57623;PMS7003;43448;52.264;20.644;2023-01-09T05:10:01;26;24;
57623;PMS7003;43448;52.264;20.644;2023-01-09T05:20:00;40;32;
57623;PMS7003;43448;52.264;20.644;2023-01-09T05:30:00;43;33;
57623;PMS7003;43448;52.264;20.644;2023-01-09T05:40:00;44;32;
57623;PMS7003;43448;52.264;20.644;2023-01-09T05:50:00;45;32;
57623;PMS7003;43448;52.264;20.644;2023-01-09T06:00:01;41;30;
57623;PMS7003;43448;52.264;20.644;2023-01-09T06:10:00;33;27;
57623;PMS7003;43448;52.264;20.644;2023-01-09T06:20:00;38;29;
57623;PMS7003;43448;52.264;20.644;2023-01-09T06:30:00;33;26;
57623;PMS7003;43448;52.264;20.644;2023-01-09T06:40:01;26;23;
57623;PMS7003;43448;52.264;20.644;2023-01-09T06:50:00;30;26;
57623;PMS7003;43448;52.264;20.644;2023-01-09T07:00:01;29;24;
57623;PMS7003;43448;52.264;20.644;2023-01-09T07:10:00;30;22;
57623;PMS7003;43448;52.264;20.644;2023-01-09T07:20:00;29;22;
57623;PMS7003;43448;52.264;20.644;2023-01-09T07:30:01;34;23;
57623;PMS7003;43448;52.264;20.644;2023-01-09T07:40:00;26;23;
57623;PMS7003;43448;52.264;20.644;2023-01-09T07:50:00;30;22;
57623;PMS7003;43448;52.264;20.644;2023-01-09T08:00:01;28;23;
57623;PMS7003;43448;52.264;20.644;2023-01-09T08:10:00;28;23;
57623;PMS7003;43448;52.264;20.644;2023-01-09T08:20:00;24;21;
57623;PMS7003;43448;52.264;20.644;2023-01-09T08:30:00;26;23;
57623;PMS7003;43448;52.264;20.644;2023-01-09T08:40:00;26;18;
57623;PMS7003;43448;52.264;20.644;2023-01-09T08:50:00;23;20;
57623;PMS7003;43448;52.264;20.644;2023-01-09T09:00:01;25;18;
57623;PMS7003;43448;52.264;20.644;2023-01-09T09:10:00;23;22;
57623;PMS7003;43448;52.264;20.644;2023-01-09T09:20:00;21;17;
57623;PMS7003;43448;52.264;20.644;2023-01-09T09:30:00;25;21;
57623;PMS7003;43448;52.264;20.644;2023-01-09T09:40:00;25;18;
57623;PMS7003;43448;52.264;20.644;2023-01-09T09:50:03;20;18;
57623;PMS7003;43448;52.264;20.644;2023-01-09T10:00:01;18;18;
57623;PMS7003;43448;52.264;20.644;2023-01-09T10:10:01;16;15;
57623;PMS7003;43448;52.264;20.644;2023-01-09T10:20:06;21;19;
57623;PMS7003;43448;52.264;20.644;2023-01-09T10:30:05;21;17;
57623;PMS7003;43448;52.264;20.644;2023-01-09T10:40:02;14;14;
57623;PMS7003;43448;52.264;20.644;2023-01-09T10:50:01;18;15;
57623;PMS7003;43448;52.264;20.644;2023-01-09T11:00:01;18;15;
57623;PMS7003;43448;52.264;20.644;2023-01-09T11:10:02;20;17;
57623;PMS7003;43448;52.264;20.644;2023-01-09T11:20:02;16;16;
57623;PMS7003;43448;52.264;20.644;2023-01-09T11:30:03;19;19;
57623;PMS7003;43448;52.264;20.644;2023-01-09T11:40:00;17;14;
57623;PMS7003;43448;52.264;20.644;2023-01-09T11:50:14;19;19;
57623;PMS7003;43448;52.264;20.644;2023-01-09T12:00:02;19;17;
57623;PMS7003;43448;52.264;20.644;2023-01-09T12:10:03;16;14;
57623;PMS7003;43448;52.264;20.644;2023-01-09T12:20:07;16;15;
57623;PMS7003;43448;52.264;20.644;2023-01-09T12:30:03;18;15;
57623;PMS7003;43448;52.264;20.644;2023-01-09T12:40:02;13;12;
57623;PMS7003;43448;52.264;20.644;2023-01-09T12:50:03;18;14;
57623;PMS7003;43448;52.264;20.644;2023-01-09T13:00:02;18;15;
57623;PMS7003;43448;52.264;20.644;2023-01-09T13:10:01;20;16;
57623;PMS7003;43448;52.264;20.644;2023-01-09T13:20:00;18;14;
57623;PMS7003;43448;52.264;20.644;2023-01-09T13:30:04;17;15;
57623;PMS7003;43448;52.264;20.644;2023-01-09T13:40:01;20;15;
57623;PMS7003;43448;52.264;20.644;2023-01-09T13:50:04;18;17;
57623;PMS7003;43448;52.264;20.644;2023-01-09T14:01:38;14;12;
57623;PMS7003;43448;52.264;20.644;2023-01-09T14:10:01;15;11;
57623;PMS7003;43448;52.264;20.644;2023-01-09T14:20:02;18;14;
57623;PMS7003;43448;52.264;20.644;2023-01-09T14:30:15;13;11;
57623;PMS7003;43448;52.264;20.644;2023-01-09T14:40:00;12;11;
57623;PMS7003;43448;52.264;20.644;2023-01-09T14:50:02;15;14;
57623;PMS7003;43448;52.264;20.644;2023-01-09T15:00:02;10;10;
57623;PMS7003;43448;52.264;20.644;2023-01-09T15:10:00;13;13;
57623;PMS7003;43448;52.264;20.644;2023-01-09T15:20:01;16;14;
57623;PMS7003;43448;52.264;20.644;2023-01-09T15:30:13;21;16;
57623;PMS7003;43448;52.264;20.644;2023-01-09T15:40:01;14;13;
57623;PMS7003;43448;52.264;20.644;2023-01-09T15:50:00;15;13;
57623;PMS7003;43448;52.264;20.644;2023-01-09T16:01:06;15;13;
57623;PMS7003;43448;52.264;20.644;2023-01-09T16:10:00;15;13;
57623;PMS7003;43448;52.264;20.644;2023-01-09T16:20:11;18;15;
57623;PMS7003;43448;52.264;20.644;2023-01-09T16:30:01;16;13;
57623;PMS7003;43448;52.264;20.644;2023-01-09T16:40:13;13;13;
57623;PMS7003;43448;52.264;20.644;2023-01-09T16:50:03;18;15;
57623;PMS7003;43448;52.264;20.644;2023-01-09T17:00:04;17;14;
57623;PMS7003;43448;52.264;20.644;2023-01-09T17:10:01;19;17;
57623;PMS7003;43448;52.264;20.644;2023-01-09T17:20:09;16;15;
57623;PMS7003;43448;52.264;20.644;2023-01-09T17:30:01;22;20;
57623;PMS7003;43448;52.264;20.644;2023-01-09T17:40:01;22;20;
57623;PMS7003;43448;52.264;20.644;2023-01-09T17:50:01;14;13;
57623;PMS7003;43448;52.264;20.644;2023-01-09T18:00:04;16;16;
57623;PMS7003;43448;52.264;20.644;2023-01-09T18:10:00;20;18;
57623;PMS7003;43448;52.264;20.644;2023-01-09T18:20:00;17;16;
57623;PMS7003;43448;52.264;20.644;2023-01-09T18:30:09;22;19;
57623;PMS7003;43448;52.264;20.644;2023-01-09T18:40:00;14;13;
57623;PMS7003;43448;52.264;20.644;2023-01-09T18:50:05;19;16;
57623;PMS7003;43448;52.264;20.644;2023-01-09T19:00:02;20;16;
57623;PMS7003;43448;52.264;20.644;2023-01-09T19:10:01;17;14;
57623;PMS7003;43448;52.264;20.644;2023-01-09T19:20:01;17;15;
57623;PMS7003;43448;52.264;20.644;2023-01-09T19:30:01;18;16;
57623;PMS7003;43448;52.264;20.644;2023-01-09T19:40:03;18;15;
57623;PMS7003;43448;52.264;20.644;2023-01-09T19:50:00;17;16;
57623;PMS7003;43448;52.264;20.644;2023-01-09T20:00:01;22;17;
57623;PMS7003;43448;52.264;20.644;2023-01-09T20:10:00;16;15;
57623;PMS7003;43448;52.264;20.644;2023-01-09T20:20:00;18;15;
57623;PMS7003;43448;52.264;20.644;2023-01-09T20:30:00;19;15;
57623;PMS7003;43448;52.264;20.644;2023-01-09T20:40:00;23;18;
57623;PMS7003;43448;52.264;20.644;2023-01-09T20:50:00;21;18;
57623;PMS7003;43448;52.264;20.644;2023-01-09T21:00:00;21;19;
57623;PMS7003;43448;52.264;20.644;2023-01-09T21:10:00;20;19;
57623;PMS7003;43448;52.264;20.644;2023-01-09T21:20:00;22;19;
57623;PMS7003;43448;52.264;20.644;2023-01-09T21:30:02;20;19;
57623;PMS7003;43448;52.264;20.644;2023-01-09T21:40:01;22;20;
57623;PMS7003;43448;52.264;20.644;2023-01-09T21:50:01;23;18;
57623;PMS7003;43448;52.264;20.644;2023-01-09T22:00:01;30;22;
57623;PMS7003;43448;52.264;20.644;2023-01-09T22:10:01;26;22;
57623;PMS7003;43448;52.264;20.644;2023-01-09T22:20:01;22;20;
57623;PMS7003;43448;52.264;20.644;2023-01-09T22:30:01;27;21;
57623;PMS7003;43448;52.264;20.644;2023-01-09T22:40:01;24;22;
57623;PMS7003;43448;52.264;20.644;2023-01-09T22:50:09;24;21;
57623;PMS7003;43448;52.264;20.644;2023-01-09T23:00:00;20;19;
57623;PMS7003;43448;52.264;20.644;2023-01-09T23:10:00;20;19;
57623;PMS7003;43448;52.264;20.644;2023-01-09T23:20:01;20;19;
57623;PMS7003;43448;52.264;20.644;2023-01-09T23:30:02;23;19;
57623;PMS7003;43448;52.264;20.644;2023-01-09T23:40:01;25;21;
57623;PMS7003;43448;52.264;20.644;2023-01-09T23:50:01;27;19;
